createdAt,value
2018-09-11T08:07:53.789Z,5.20
2018-09-11T08:10:21.121Z,5.17
2018-09-11T08:12:48.466Z,4.80
2018-09-11T08:15:15.861Z,5.40
2018-09-11T08:17:43.326Z,4.73
2018-09-11T08:20:10.618Z,5.57
2018-09-11T08:22:37.895Z,5.03
2018-09-11T08:25:05.581Z,5.20
2018-09-11T08:27:32.885Z,4.97
2018-09-11T08:30:00.488Z,5.50
2018-09-11T08:32:28.642Z,5.20
2018-09-11T08:34:56.129Z,4.53
2018-09-11T08:37:23.564Z,4.87
2018-09-11T08:39:50.957Z,5.50
2018-09-11T08:42:18.397Z,4.70
2018-09-11T08:44:45.688Z,4.93
2018-09-11T08:47:13.047Z,4.80
2018-09-11T08:49:40.550Z,4.70
2018-09-11T08:52:07.928Z,5.53
2018-09-11T08:54:35.805Z,5.03
2018-09-11T08:57:03.109Z,5.10
2018-09-11T08:59:30.633Z,4.50
2018-09-11T09:01:58.083Z,4.83
2018-09-11T09:04:31.258Z,4.80
2018-09-11T09:06:59.084Z,4.90
2018-09-11T09:09:26.661Z,4.20
2018-09-11T09:11:54.058Z,4.57
2018-09-11T09:14:21.528Z,4.50
2018-09-11T09:16:49.184Z,5.27
2018-09-11T09:19:16.620Z,5.10
2018-09-11T09:21:43.957Z,4.80
2018-09-11T09:24:11.348Z,4.87
2018-09-11T09:26:38.673Z,4.57
2018-09-11T09:29:06.025Z,5.27
2018-09-11T09:31:33.372Z,4.37
2018-09-11T09:34:01.418Z,4.50
2018-09-11T09:36:28.752Z,4.10
2018-09-11T09:38:56.108Z,4.00
2018-09-11T09:41:24.237Z,4.70
2018-09-11T09:43:51.730Z,5.00
2018-09-11T09:46:19.904Z,4.70
2018-09-11T09:48:47.334Z,4.50
2018-09-11T09:51:14.765Z,4.70
2018-09-11T09:53:42.106Z,4.80
2018-09-11T09:56:09.417Z,4.20
2018-09-11T09:58:37.558Z,4.00
2018-09-11T10:01:10.575Z,4.23
2018-09-11T10:03:37.889Z,4.60
2018-09-11T10:06:05.220Z,4.63
2018-09-11T10:08:32.946Z,4.40
2018-09-11T10:11:00.427Z,4.43
2018-09-11T10:13:28.589Z,4.50
2018-09-11T10:15:55.893Z,5.00
2018-09-11T10:18:24.238Z,4.83
2018-09-11T10:20:51.626Z,4.60
2018-09-11T10:23:19.028Z,4.27
2018-09-11T10:25:46.478Z,3.97
2018-09-11T10:28:13.922Z,4.70
2018-09-11T10:30:41.518Z,4.97
2018-09-11T10:33:08.903Z,4.40
2018-09-11T10:35:36.276Z,3.50
2018-09-11T10:38:03.882Z,3.90
2018-09-11T10:40:31.576Z,3.80
2018-09-11T10:42:59.124Z,3.93
2018-09-11T10:45:27.271Z,4.20
2018-09-11T10:47:55.767Z,3.70
2018-09-11T10:50:23.063Z,4.03
2018-09-11T10:52:50.457Z,3.80
2018-09-11T10:55:17.796Z,3.93
2018-09-11T10:57:45.353Z,3.40
2018-09-11T11:00:12.855Z,3.63
2018-09-11T11:02:40.554Z,3.63
2018-09-11T11:05:08.164Z,4.17
2018-09-11T11:10:13.523Z,3.80
2018-09-11T11:12:41.043Z,3.97
2018-09-11T11:15:08.547Z,3.67
2018-09-11T11:17:35.933Z,4.17
2018-09-11T11:20:03.203Z,3.90
2018-09-11T11:22:30.799Z,3.63
2018-09-11T11:24:58.173Z,3.63
2018-09-11T11:27:25.551Z,3.63
2018-09-11T11:29:53.663Z,3.83
2018-09-11T11:32:21.270Z,4.00
2018-09-11T11:34:48.573Z,4.00
2018-09-11T11:37:16.117Z,4.07
2018-09-11T11:39:43.421Z,4.27
2018-09-11T11:42:11.068Z,4.30
2018-09-11T11:44:38.470Z,4.30
2018-09-11T11:47:06.083Z,4.13
2018-09-11T11:49:33.542Z,4.30
2018-09-11T11:52:01.139Z,4.37
2018-09-11T11:54:28.477Z,4.53
2018-09-11T11:56:55.814Z,4.17
2018-09-11T11:59:23.287Z,4.17
2018-09-11T12:01:50.873Z,4.47
2018-09-11T12:04:18.245Z,3.93
2018-09-11T12:06:45.643Z,3.37
2018-09-11T12:09:13.063Z,4.20
2018-09-11T12:11:40.598Z,4.07
2018-09-11T12:14:07.997Z,4.20
2018-09-11T12:16:35.348Z,4.40
2018-09-11T12:19:02.731Z,4.30
2018-09-11T12:21:30.219Z,4.40
2018-09-11T12:23:57.642Z,4.03
2018-09-11T12:26:25.683Z,4.17
2018-09-11T12:28:53.582Z,4.20
2018-09-11T12:31:21.122Z,4.07
2018-09-11T12:33:50.533Z,4.53
2018-09-11T12:36:17.841Z,4.10
2018-09-11T12:38:45.340Z,4.17
2018-09-11T12:41:12.675Z,4.00
2018-09-11T12:43:40.223Z,4.37
2018-09-11T12:46:07.966Z,4.33
2018-09-11T12:48:35.393Z,4.27
2018-09-11T12:51:02.632Z,3.87
2018-09-11T12:53:30.089Z,4.00
2018-09-11T12:55:57.541Z,4.20
2018-09-11T12:58:24.991Z,4.37
2018-09-11T13:00:52.414Z,4.43
2018-09-11T13:03:20.374Z,4.77
2018-09-11T13:05:47.799Z,4.20
2018-09-11T13:08:15.126Z,4.80
2018-09-11T13:10:42.523Z,4.40
2018-09-11T13:13:09.880Z,5.20
2018-09-11T13:15:37.965Z,5.40
2018-09-11T13:18:05.320Z,4.80
2018-09-11T13:20:32.736Z,4.57
2018-09-11T13:23:00.260Z,4.30
2018-09-11T13:25:27.804Z,4.70
2018-09-11T13:27:55.191Z,4.63
2018-09-11T13:30:22.643Z,5.53
2018-09-11T13:32:50.033Z,5.27
2018-09-11T13:35:17.315Z,5.50
2018-09-11T13:37:44.678Z,5.40
2018-09-11T13:40:12.159Z,5.60
2018-09-11T13:42:39.637Z,6.27
2018-09-11T13:45:07.086Z,5.50
2018-09-11T13:47:34.618Z,5.47
2018-09-11T13:50:01.966Z,6.13
2018-09-11T13:52:29.356Z,5.70
2018-09-11T13:54:56.682Z,6.57
2018-09-11T13:57:24.109Z,6.53
2018-09-11T13:59:52.276Z,6.40
2018-09-11T14:02:20.000Z,6.20
2018-09-11T14:04:47.366Z,5.97
2018-09-11T14:07:15.142Z,6.10
2018-09-11T14:09:43.081Z,6.17
2018-09-11T14:12:10.521Z,6.10
2018-09-11T14:14:37.864Z,6.50
2018-09-11T14:17:05.388Z,6.13
2018-09-11T14:19:32.795Z,5.77
2018-09-11T14:22:00.234Z,6.07
2018-09-11T14:24:27.820Z,5.53
2018-09-11T14:26:55.695Z,5.60
2018-09-11T14:29:23.153Z,5.90
2018-09-11T14:31:50.638Z,5.33
2018-09-11T14:34:18.728Z,5.47
2018-09-11T14:36:46.272Z,5.60
2018-09-11T14:39:13.995Z,5.50
2018-09-11T14:41:41.377Z,5.57
2018-09-11T14:44:09.014Z,5.33
2018-09-11T14:46:36.763Z,5.80
2018-09-11T14:49:04.648Z,5.37
2018-09-11T14:51:32.278Z,5.87
2018-09-11T14:54:00.101Z,6.40
2018-09-11T14:56:27.625Z,6.83
2018-09-11T14:58:55.918Z,6.67
2018-09-11T15:01:23.848Z,6.23
2018-09-11T15:03:51.455Z,6.30
2018-09-11T15:06:18.993Z,6.07
2018-09-11T15:08:46.915Z,7.20
2018-09-11T15:11:14.673Z,6.33
2018-09-11T15:13:42.414Z,6.30
2018-09-11T15:16:10.094Z,7.00
2018-09-11T15:18:37.810Z,6.20
2018-09-11T15:21:05.295Z,6.47
2018-09-11T15:23:32.779Z,6.17
2018-09-11T15:26:00.353Z,5.80
2018-09-11T15:28:27.782Z,6.63
2018-09-11T15:30:55.306Z,6.67
2018-09-11T15:33:23.046Z,6.27
2018-09-11T15:35:54.689Z,6.60
2018-09-11T15:38:22.570Z,6.23
2018-09-11T15:40:50.444Z,7.07
2018-09-11T15:43:18.203Z,7.17
2018-09-11T15:45:46.423Z,6.63
2018-09-11T15:48:14.579Z,7.23
2018-09-11T15:50:42.440Z,6.17
2018-09-11T15:53:09.877Z,6.30
2018-09-11T15:55:37.519Z,6.87
2018-09-11T15:58:04.882Z,6.60
2018-09-11T16:00:32.283Z,7.13
2018-09-11T16:03:00.476Z,7.20
2018-09-11T16:05:27.899Z,7.37
2018-09-11T16:07:55.760Z,6.83
2018-09-11T16:10:23.324Z,7.17
2018-09-11T16:12:50.810Z,7.37
2018-09-11T16:15:18.171Z,8.43
2018-09-11T16:17:45.693Z,7.20
2018-09-11T16:20:13.461Z,8.03
2018-09-11T16:22:41.250Z,7.60
2018-09-11T16:25:08.643Z,7.57
2018-09-11T16:27:36.143Z,7.03
2018-09-11T16:30:03.830Z,7.57
2018-09-11T16:32:31.246Z,7.53
2018-09-11T16:34:58.705Z,7.57
2018-09-11T16:37:26.054Z,6.83
2018-09-11T16:39:53.492Z,6.57
2018-09-11T16:42:21.004Z,7.60
2018-09-11T16:44:48.409Z,7.03
2018-09-11T16:47:15.860Z,7.17
2018-09-11T16:49:43.593Z,7.17
2018-09-11T16:52:10.981Z,6.90
2018-09-11T16:54:38.329Z,7.03
2018-09-11T16:57:05.669Z,7.57
2018-09-11T16:59:33.906Z,6.07
2018-09-11T17:02:02.130Z,5.80
2018-09-11T17:04:29.624Z,6.57
2018-09-11T17:06:57.082Z,6.63
2018-09-11T17:09:25.095Z,6.70
2018-09-11T17:11:52.704Z,6.67
2018-09-11T17:14:20.151Z,6.97
2018-09-11T17:16:47.564Z,6.83
2018-09-11T17:19:15.161Z,7.10
2018-09-11T17:21:42.609Z,6.57
2018-09-11T17:24:10.478Z,7.20
2018-09-11T17:26:38.450Z,6.43
2018-09-11T17:29:05.800Z,6.73
2018-09-11T17:31:33.202Z,6.60
2018-09-11T17:34:00.541Z,7.20
2018-09-11T17:36:28.123Z,6.83
2018-09-11T17:38:55.810Z,7.70
2018-09-11T17:41:23.303Z,8.27
2018-09-11T17:43:51.287Z,6.53
2018-09-11T17:46:18.818Z,8.10
2018-09-11T17:48:46.376Z,8.10
2018-09-11T17:51:14.251Z,8.50
2018-09-11T17:53:41.700Z,8.17
2018-09-11T17:56:09.280Z,8.57
2018-09-11T17:58:36.852Z,8.17
2018-09-11T18:01:04.467Z,8.60
2018-09-11T18:03:32.014Z,8.83
2018-09-11T18:06:00.577Z,8.60
2018-09-11T18:08:28.319Z,8.83
2018-09-11T18:10:55.964Z,9.10
2018-09-11T18:13:23.741Z,9.23
2018-09-11T18:15:52.429Z,8.80
2018-09-11T18:18:21.511Z,9.23
2018-09-11T18:20:48.876Z,9.20
2018-09-11T18:23:16.727Z,10.40
2018-09-11T18:25:45.137Z,9.27
2018-09-11T18:28:12.573Z,10.30
2018-09-11T18:30:40.170Z,11.10
2018-09-11T18:33:07.736Z,10.30
2018-09-11T18:35:35.064Z,10.47
2018-09-11T18:38:02.584Z,10.63
2018-09-11T18:40:29.882Z,10.37
2018-09-11T18:42:57.441Z,10.03
2018-09-11T18:45:24.822Z,10.10
2018-09-11T18:47:52.512Z,10.30
2018-09-11T18:50:19.887Z,9.77
2018-09-11T18:52:47.483Z,10.30
2018-09-11T18:55:15.430Z,10.40
2018-09-11T18:57:42.821Z,9.50
2018-09-11T19:00:10.452Z,9.60
2018-09-11T19:02:37.800Z,8.40
2018-09-11T19:05:05.213Z,8.33
2018-09-11T19:07:32.674Z,8.67
2018-09-11T19:10:00.031Z,8.97
2018-09-11T19:12:27.637Z,7.93
2018-09-11T19:14:55.593Z,7.77
2018-09-11T19:17:22.874Z,6.90
2018-09-11T19:19:50.253Z,6.97
2018-09-11T19:22:17.720Z,7.13
2018-09-11T19:24:45.194Z,7.57
2018-09-11T19:27:13.289Z,8.87
2018-09-11T19:29:40.710Z,9.67
2018-09-11T19:32:08.035Z,9.73
2018-09-11T19:34:35.378Z,10.37
2018-09-11T19:37:02.775Z,10.43
2018-09-11T19:39:30.180Z,11.50
2018-09-11T19:41:57.513Z,13.37
2018-09-11T19:44:25.720Z,12.83
2018-09-11T19:46:53.168Z,13.33
2018-09-11T19:49:20.487Z,12.97
2018-09-11T19:51:48.526Z,12.97
2018-09-11T19:54:15.905Z,13.07
2018-09-11T19:56:43.373Z,12.43
2018-09-11T19:59:10.855Z,12.23
2018-09-11T20:01:38.163Z,12.60
2018-09-11T20:04:05.506Z,12.73
2018-09-11T20:06:32.769Z,12.83
2018-09-11T20:09:00.276Z,12.23
2018-09-11T20:11:27.617Z,12.63
2018-09-11T20:13:55.045Z,14.00
2018-09-11T20:16:22.409Z,13.50
2018-09-11T20:18:56.151Z,14.93
2018-09-11T20:21:39.508Z,15.03
2018-09-11T20:24:07.791Z,15.17
2018-09-11T20:26:35.180Z,13.37
2018-09-11T20:29:02.568Z,14.13
2018-09-11T20:31:29.993Z,13.50
2018-09-11T20:33:57.583Z,12.23
2018-09-11T20:36:25.191Z,12.60
2018-09-11T20:38:52.506Z,13.17
2018-09-11T20:41:24.063Z,11.87
2018-09-11T20:43:51.715Z,12.37
2018-09-11T20:46:19.068Z,12.00
2018-09-11T20:48:46.585Z,11.60
2018-09-11T20:51:13.893Z,11.90
2018-09-11T20:53:41.275Z,12.70
2018-09-11T20:56:08.651Z,13.20
2018-09-11T20:58:36.638Z,13.20
2018-09-11T21:01:03.982Z,13.37
2018-09-11T21:03:31.330Z,13.73
2018-09-11T21:05:58.863Z,12.43
2018-09-11T21:08:26.414Z,12.70
2018-09-11T21:10:53.756Z,12.70
2018-09-11T21:13:21.159Z,11.87
2018-09-11T21:15:48.578Z,10.40
2018-09-11T21:18:16.024Z,9.90
2018-09-11T21:20:43.389Z,8.67
2018-09-11T21:23:11.054Z,9.90
2018-09-11T21:25:39.463Z,9.93
2018-09-11T21:28:07.633Z,8.40
2018-09-11T21:30:35.000Z,7.70
2018-09-11T21:33:02.408Z,7.93
2018-09-11T21:35:29.851Z,7.50
2018-09-11T21:37:58.101Z,8.10
2018-09-11T21:40:25.530Z,8.50
2018-09-11T21:42:53.160Z,7.90
2018-09-11T21:45:21.606Z,8.13
2018-09-11T21:47:49.002Z,7.30
2018-09-11T21:50:16.672Z,7.83
2018-09-11T21:52:44.009Z,7.53
2018-09-11T21:55:11.441Z,8.03
2018-09-11T21:57:38.767Z,7.23
2018-09-11T22:00:08.688Z,7.50
2018-09-11T22:02:36.539Z,7.57
2018-09-11T22:05:03.967Z,8.03
2018-09-11T22:07:31.523Z,8.50
2018-09-11T22:09:58.984Z,8.80
2018-09-11T22:12:26.249Z,7.90
2018-09-11T22:14:53.625Z,8.17
2018-09-11T22:17:21.547Z,8.57
2018-09-11T22:19:48.905Z,9.13
2018-09-11T22:22:16.355Z,9.43
2018-09-11T22:24:43.826Z,9.30
2018-09-11T22:27:11.133Z,10.03
2018-09-11T22:29:38.513Z,10.07
2018-09-11T22:32:05.928Z,10.27
2018-09-11T22:34:33.345Z,9.93
2018-09-11T22:37:00.634Z,9.00
2018-09-11T22:39:27.930Z,8.97
2018-09-11T22:41:55.352Z,9.53
2018-09-11T22:44:22.755Z,9.03
2018-09-11T22:46:50.123Z,8.80
2018-09-11T22:49:17.449Z,8.20
2018-09-11T22:51:44.738Z,9.70
2018-09-11T22:54:12.279Z,9.57
2018-09-11T22:56:39.970Z,9.63
2018-09-11T22:59:07.382Z,9.50
2018-09-11T23:01:34.797Z,8.33
2018-09-11T23:04:02.269Z,8.30
2018-09-11T23:06:29.633Z,9.17
2018-09-11T23:08:57.137Z,10.17
2018-09-11T23:11:24.416Z,9.30
2018-09-11T23:13:51.774Z,8.63
2018-09-11T23:16:19.073Z,8.53
2018-09-11T23:18:46.477Z,9.10
2018-09-11T23:21:13.858Z,8.67
2018-09-11T23:23:42.973Z,8.97
2018-09-11T23:26:10.247Z,9.20
2018-09-11T23:28:37.589Z,9.57
2018-09-11T23:31:04.856Z,8.77
2018-09-11T23:33:32.115Z,9.60
2018-09-11T23:35:59.411Z,9.10
2018-09-11T23:38:26.701Z,8.77
2018-09-11T23:40:54.002Z,9.20
2018-09-11T23:43:21.396Z,8.20
2018-09-11T23:45:48.755Z,8.23
2018-09-11T23:48:16.157Z,8.73
2018-09-11T23:50:43.503Z,8.17
2018-09-11T23:53:10.854Z,7.77
2018-09-11T23:55:38.087Z,7.80
2018-09-11T23:58:05.385Z,8.30
